createdAt,value
2022-09-23T00:02:24.750Z,12.06
2022-09-23T00:04:53.923Z,12.04
2022-09-23T00:07:21.721Z,12.08
2022-09-23T00:09:51.215Z,12.02
2022-09-23T00:12:18.998Z,11.98
2022-09-23T00:14:46.829Z,12.01
2022-09-23T00:17:14.654Z,12.04
2022-09-23T00:19:43.897Z,12.06
2022-09-23T00:22:13.827Z,12.02
2022-09-23T00:24:41.685Z,11.99
2022-09-23T00:27:09.798Z,12.03
2022-09-23T00:29:38.415Z,12.00
2022-09-23T00:32:06.230Z,12.04
2022-09-23T00:34:34.011Z,12.09
2022-09-23T00:37:01.763Z,12.06
2022-09-23T00:39:31.217Z,12.01
2022-09-23T00:41:59.020Z,11.99
2022-09-23T00:44:48.193Z,12.02
2022-09-23T00:47:29.580Z,12.06
2022-09-23T00:50:05.254Z,12.09
2022-09-23T00:52:33.565Z,12.14
2022-09-23T00:55:09.302Z,12.08
2022-09-23T00:57:42.730Z,12.08
2022-09-23T01:00:13.154Z,12.12
2022-09-23T01:02:41.059Z,12.14
2022-09-23T01:05:10.305Z,12.18
2022-09-23T01:07:38.181Z,12.19
2022-09-23T01:10:10.711Z,12.21
2022-09-23T01:13:02.910Z,12.17
2022-09-23T01:15:44.944Z,12.17
2022-09-23T01:18:31.124Z,12.12
2022-09-23T01:21:16.605Z,12.10
2022-09-23T01:24:43.855Z,12.02
2022-09-23T01:27:36.422Z,12.01
2022-09-23T01:30:40.790Z,12.10
2022-09-23T01:33:18.657Z,12.03
2022-09-23T01:36:07.147Z,12.02
2022-09-23T01:38:44.918Z,11.97
2022-09-23T01:41:31.350Z,12.00
2022-09-23T01:44:06.070Z,11.99
2022-09-23T01:46:47.350Z,11.98
2022-09-23T01:49:22.253Z,11.99
2022-09-23T01:51:59.335Z,12.01
2022-09-23T01:54:38.700Z,12.03
2022-09-23T01:57:16.141Z,12.00
2022-09-23T01:59:52.540Z,12.04
2022-09-23T02:02:29.288Z,11.97
2022-09-23T02:05:04.183Z,11.93
2022-09-23T02:07:40.634Z,11.94
2022-09-23T02:10:16.691Z,11.88
2022-09-23T02:12:49.826Z,11.87
2022-09-23T02:15:24.730Z,11.84
2022-09-23T02:18:14.453Z,11.82
2022-09-23T02:20:44.858Z,11.86
2022-09-23T02:23:19.336Z,11.82
2022-09-23T02:26:02.661Z,11.80
2022-09-23T02:28:40.141Z,11.80
2022-09-23T02:31:16.305Z,11.77
2022-09-23T02:34:00.043Z,11.76
2022-09-23T02:36:32.519Z,11.77
2022-09-23T02:39:08.509Z,11.77
2022-09-23T02:41:53.453Z,11.76
2022-09-23T02:44:23.518Z,11.74
2022-09-23T02:46:53.083Z,11.74
2022-09-23T02:49:26.416Z,11.67
2022-09-23T02:51:54.981Z,11.61
2022-09-23T02:54:27.220Z,11.60
2022-09-23T02:56:56.449Z,11.58
2022-09-23T02:59:24.645Z,11.56
2022-09-23T03:02:14.110Z,11.60
2022-09-23T03:04:54.789Z,11.56
2022-09-23T03:07:33.507Z,11.59
2022-09-23T03:10:15.010Z,11.55
2022-09-23T03:12:59.450Z,11.61
2022-09-23T03:15:38.628Z,11.59
2022-09-23T03:18:15.759Z,11.58
2022-09-23T03:20:53.437Z,11.64
2022-09-23T03:23:28.893Z,11.59
2022-09-23T03:26:02.509Z,11.58
2022-09-23T03:28:31.509Z,11.57
2022-09-23T03:31:00.419Z,11.57
2022-09-23T03:33:29.050Z,11.59
2022-09-23T03:36:25.366Z,11.56
2022-09-23T03:39:04.793Z,11.59
2022-09-23T03:41:40.230Z,11.59
2022-09-23T03:44:09.201Z,11.57
2022-09-23T03:46:37.636Z,11.55
2022-09-23T03:49:15.653Z,11.64
2022-09-23T03:51:44.998Z,11.56
2022-09-23T03:54:12.787Z,11.54
2022-09-23T03:56:40.597Z,11.44
2022-09-23T03:59:08.418Z,11.51
2022-09-23T04:01:36.321Z,11.47
2022-09-23T04:04:04.128Z,11.38
2022-09-23T04:06:31.903Z,11.28
2022-09-23T04:09:01.925Z,11.24
2022-09-23T04:11:29.786Z,11.22
2022-09-23T04:13:58.027Z,11.22
2022-09-23T04:16:26.036Z,11.12
2022-09-23T04:18:53.873Z,11.07
2022-09-23T04:21:22.046Z,10.99
2022-09-23T04:23:49.907Z,10.93
2022-09-23T04:26:19.094Z,10.93
2022-09-23T04:28:46.869Z,10.86
2022-09-23T04:31:14.803Z,10.85
2022-09-23T04:33:42.881Z,10.89
2022-09-23T04:36:10.983Z,10.84
2022-09-23T04:38:38.750Z,10.80
2022-09-23T04:41:08.641Z,10.69
2022-09-23T04:43:37.916Z,10.69
2022-09-23T04:46:09.023Z,10.67
2022-09-23T04:48:38.376Z,10.73
2022-09-23T04:51:10.641Z,10.73
2022-09-23T04:53:41.422Z,10.70
2022-09-23T04:56:12.907Z,10.65
2022-09-23T04:58:42.857Z,10.69
2022-09-23T05:01:13.605Z,10.68
2022-09-23T05:03:43.039Z,10.70
2022-09-23T05:06:13.780Z,10.75
2022-09-23T05:08:47.818Z,10.83
2022-09-23T05:11:16.309Z,10.80
2022-09-23T05:13:47.032Z,10.79
2022-09-23T05:16:15.167Z,10.66
2022-09-23T05:18:45.085Z,10.70
2022-09-23T05:21:16.167Z,10.78
2022-09-23T05:23:48.612Z,10.79
2022-09-23T05:26:16.704Z,10.77
2022-09-23T05:28:45.890Z,10.76
2022-09-23T05:31:20.044Z,10.74
2022-09-23T05:33:52.822Z,10.82
2022-09-23T05:36:22.070Z,10.91
2022-09-23T05:38:51.228Z,10.93
2022-09-23T05:41:23.030Z,10.88
2022-09-23T05:43:54.487Z,10.86
2022-09-23T05:46:24.878Z,10.85
2022-09-23T05:48:52.744Z,10.86
2022-09-23T05:51:30.126Z,10.84
2022-09-23T05:54:02.700Z,10.90
2022-09-23T05:56:31.887Z,10.87
2022-09-23T05:59:02.344Z,10.90
2022-09-23T06:01:33.862Z,11.02
2022-09-23T06:04:08.673Z,11.09
2022-09-23T06:06:39.159Z,11.18
2022-09-23T06:09:11.330Z,11.22
2022-09-23T06:11:39.521Z,11.31
2022-09-23T06:14:12.983Z,11.41
2022-09-23T06:16:41.027Z,11.45
2022-09-23T06:19:09.785Z,11.59
2022-09-23T06:21:40.511Z,11.58
2022-09-23T06:24:11.688Z,11.67
2022-09-23T06:26:42.659Z,11.77
2022-09-23T06:29:12.475Z,11.98
2022-09-23T06:31:42.172Z,12.14
2022-09-23T06:34:13.743Z,12.20
2022-09-23T06:36:44.955Z,12.17
2022-09-23T06:39:14.835Z,12.17
2022-09-23T06:41:47.455Z,12.30
2022-09-23T06:44:17.192Z,12.54
2022-09-23T06:46:45.442Z,12.69
2022-09-23T06:49:13.472Z,12.89
2022-09-23T06:51:42.718Z,13.08
2022-09-23T06:54:10.919Z,13.15
2022-09-23T06:56:40.670Z,13.35
2022-09-23T06:59:12.906Z,13.61
2022-09-23T07:01:42.530Z,13.74
2022-09-23T07:04:10.871Z,13.97
2022-09-23T07:06:40.273Z,14.26
2022-09-23T07:09:08.834Z,14.58
2022-09-23T07:11:36.978Z,14.83
2022-09-23T07:14:07.828Z,15.22
2022-09-23T07:16:35.609Z,15.47
2022-09-23T07:19:05.041Z,15.77
2022-09-23T07:21:33.632Z,15.88
2022-09-23T07:24:02.249Z,16.29
2022-09-23T07:26:30.939Z,16.60
2022-09-23T07:29:04.695Z,16.66
2022-09-23T07:31:39.086Z,17.04
2022-09-23T07:34:11.429Z,17.29
2022-09-23T07:36:40.976Z,17.64
2022-09-23T07:39:12.386Z,17.94
2022-09-23T07:41:44.591Z,18.02
2022-09-23T07:44:12.953Z,18.22
2022-09-23T07:46:41.384Z,18.42
2022-09-23T07:49:10.897Z,18.72
2022-09-23T07:51:42.450Z,18.70
2022-09-23T07:54:15.673Z,18.83
2022-09-23T07:56:44.339Z,18.82
2022-09-23T07:59:17.120Z,19.22
2022-09-23T08:01:48.410Z,19.46
2022-09-23T08:04:20.837Z,19.71
2022-09-23T08:06:51.514Z,19.83
2022-09-23T08:09:23.309Z,19.56
2022-09-23T08:11:52.065Z,19.41
2022-09-23T08:14:22.164Z,19.27
2022-09-23T08:16:51.776Z,19.32
2022-09-23T08:19:21.135Z,19.46
2022-09-23T08:21:52.041Z,19.56
2022-09-23T08:24:23.608Z,19.70
2022-09-23T08:26:53.300Z,20.04
2022-09-23T08:29:24.343Z,20.01
2022-09-23T08:31:53.395Z,20.16
2022-09-23T08:34:23.733Z,20.24
2022-09-23T08:36:52.306Z,20.21
2022-09-23T08:39:21.344Z,20.35
2022-09-23T08:42:14.561Z,20.61
2022-09-23T08:44:54.201Z,20.34
2022-09-23T08:47:27.862Z,20.42
2022-09-23T08:50:08.790Z,20.52
2022-09-23T08:52:48.897Z,20.66
2022-09-23T08:55:18.523Z,20.65
2022-09-23T08:58:24.376Z,20.36
2022-09-23T09:01:07.863Z,20.40
2022-09-23T09:03:45.028Z,20.29
2022-09-23T09:06:21.098Z,20.42
2022-09-23T09:08:58.793Z,20.27
2022-09-23T09:11:35.835Z,20.25
2022-09-23T09:14:17.990Z,20.13
2022-09-23T09:17:01.162Z,20.10
2022-09-23T09:19:52.488Z,20.50
2022-09-23T09:25:43.002Z,20.59
2022-09-23T09:28:19.866Z,20.90
2022-09-23T09:30:54.118Z,20.95
2022-09-23T09:33:32.207Z,21.23
2022-09-23T09:36:19.019Z,21.15
2022-09-23T09:38:48.768Z,21.35
2022-09-23T09:41:21.239Z,21.43
2022-09-23T09:43:57.613Z,21.53
2022-09-23T09:46:52.256Z,21.50
2022-09-23T09:49:38.130Z,21.55
2022-09-23T09:52:22.440Z,21.57
2022-09-23T09:54:53.191Z,21.57
2022-09-23T09:57:35.044Z,21.63
2022-09-23T10:00:46.045Z,21.81
2022-09-23T10:03:41.293Z,22.02
2022-09-23T10:06:23.535Z,21.97
2022-09-23T10:09:13.580Z,22.18
2022-09-23T10:12:02.868Z,22.11
2022-09-23T10:14:31.420Z,21.98
2022-09-23T10:17:06.006Z,21.94
2022-09-23T10:19:38.613Z,22.12
2022-09-23T10:22:19.805Z,22.17
2022-09-23T10:24:50.983Z,22.13
2022-09-23T10:27:31.378Z,21.99
2022-09-23T10:30:03.472Z,22.15
2022-09-23T10:32:37.214Z,22.24
2022-09-23T10:35:16.320Z,22.42
2022-09-23T10:37:48.331Z,22.50
2022-09-23T10:40:43.808Z,22.49
2022-09-23T10:43:52.447Z,22.28
2022-09-23T10:46:45.823Z,22.55
2022-09-23T10:50:16.541Z,22.61
2022-09-23T10:53:04.146Z,22.35
2022-09-23T10:55:49.499Z,22.42
2022-09-23T10:59:02.320Z,22.22
2022-09-23T11:01:43.551Z,22.45
2022-09-23T11:04:39.767Z,22.49
2022-09-23T11:07:23.706Z,22.71
2022-09-23T11:10:42.256Z,22.96
2022-09-23T11:13:30.995Z,23.01
2022-09-23T11:16:15.104Z,23.17
2022-09-23T11:19:04.727Z,23.22
2022-09-23T11:22:00.997Z,23.05
2022-09-23T11:25:01.230Z,22.80
2022-09-23T11:27:58.365Z,23.28
2022-09-23T11:30:43.193Z,23.68
2022-09-23T11:33:38.429Z,23.63
2022-09-23T11:36:16.142Z,23.54
2022-09-23T11:38:49.922Z,23.92
2022-09-23T11:41:23.474Z,23.86
2022-09-23T11:44:01.145Z,24.17
2022-09-23T11:46:40.409Z,23.88
2022-09-23T11:49:17.154Z,24.31
2022-09-23T11:52:05.164Z,23.88
2022-09-23T11:54:43.093Z,23.81
2022-09-23T11:57:24.623Z,24.09
2022-09-23T11:59:59.850Z,24.15
2022-09-23T12:02:44.758Z,23.95
2022-09-23T12:05:22.113Z,24.09
2022-09-23T12:07:57.623Z,24.03
2022-09-23T12:10:41.732Z,23.77
2022-09-23T12:13:19.620Z,23.82
2022-09-23T12:16:13.650Z,23.85
2022-09-23T12:19:11.069Z,23.52
2022-09-23T12:22:05.760Z,23.68
2022-09-23T12:24:57.769Z,23.52
2022-09-23T12:27:36.806Z,23.61
2022-09-23T12:30:14.214Z,23.68
2022-09-23T12:32:43.233Z,23.63
2022-09-23T12:35:25.402Z,23.69
2022-09-23T12:37:53.805Z,23.51
2022-09-23T12:40:31.374Z,23.44
2022-09-23T12:43:01.231Z,23.29
2022-09-23T12:45:40.213Z,23.44
2022-09-23T12:48:43.725Z,23.51
2022-09-23T12:51:21.604Z,23.54
2022-09-23T12:54:19.270Z,23.56
2022-09-23T12:57:09.257Z,23.21
2022-09-23T12:59:59.345Z,23.36
2022-09-23T13:02:34.730Z,23.37
2022-09-23T13:05:40.396Z,23.24
2022-09-23T13:08:16.732Z,23.39
2022-09-23T13:10:49.362Z,23.54
2022-09-23T13:13:26.957Z,23.44
2022-09-23T13:15:55.140Z,23.40
2022-09-23T13:18:40.309Z,23.48
2022-09-23T13:21:18.737Z,23.43
2022-09-23T13:24:18.716Z,23.27
2022-09-23T13:26:50.851Z,23.39
2022-09-23T13:29:25.939Z,23.39
2022-09-23T13:31:57.539Z,23.47
2022-09-23T13:34:33.049Z,23.55
2022-09-23T13:37:22.172Z,23.61
2022-09-23T13:39:51.957Z,23.46
2022-09-23T13:42:27.296Z,23.58
2022-09-23T13:44:58.944Z,23.53
2022-09-23T13:47:30.947Z,23.45
2022-09-23T13:49:59.169Z,23.51
2022-09-23T13:52:31.681Z,23.56
2022-09-23T13:55:00.835Z,23.68
2022-09-23T13:57:33.742Z,23.83
2022-09-23T14:00:16.320Z,23.63
2022-09-23T14:02:46.764Z,23.62
2022-09-23T14:05:24.541Z,23.49
2022-09-23T14:07:55.033Z,23.05
2022-09-23T14:10:27.539Z,22.95
2022-09-23T14:12:56.803Z,22.94
2022-09-23T14:15:25.472Z,23.03
2022-09-23T14:18:01.539Z,22.83
2022-09-23T14:20:29.377Z,22.99
2022-09-23T14:23:06.906Z,23.04
2022-09-23T14:25:36.687Z,22.91
2022-09-23T14:28:05.190Z,22.77
2022-09-23T14:30:33.386Z,22.95
2022-09-23T14:33:05.538Z,22.90
2022-09-23T14:35:43.250Z,22.71
2022-09-23T14:38:29.776Z,22.62
2022-09-23T14:41:29.414Z,22.58
2022-09-23T14:44:00.652Z,22.77
2022-09-23T14:46:32.958Z,22.89
2022-09-23T14:49:07.437Z,22.68
2022-09-23T14:51:47.875Z,22.56
2022-09-23T14:54:37.000Z,22.67
2022-09-23T14:57:30.404Z,22.55
2022-09-23T15:00:02.337Z,22.58
2022-09-23T15:02:36.223Z,22.64
2022-09-23T15:05:19.622Z,22.53
2022-09-23T15:07:51.499Z,22.28
2022-09-23T15:10:25.376Z,22.43
2022-09-23T15:13:04.147Z,22.31
2022-09-23T15:15:32.461Z,22.18
2022-09-23T15:18:06.259Z,22.16
2022-09-23T15:20:35.429Z,22.20
2022-09-23T15:23:03.788Z,22.12
2022-09-23T15:25:35.391Z,21.95
2022-09-23T15:28:19.429Z,22.00
2022-09-23T15:30:47.244Z,21.75
2022-09-23T15:33:15.154Z,21.89
2022-09-23T15:35:47.111Z,21.99
2022-09-23T15:38:15.025Z,21.83
2022-09-23T15:40:42.937Z,21.57
2022-09-23T15:43:20.216Z,21.59
2022-09-23T15:45:53.007Z,21.56
2022-09-23T15:48:25.786Z,21.63
2022-09-23T15:50:55.265Z,21.72
2022-09-23T15:53:27.086Z,21.70
2022-09-23T15:55:54.981Z,21.66
2022-09-23T15:58:27.657Z,21.67
2022-09-23T16:00:57.458Z,21.57
2022-09-23T16:03:28.500Z,21.53
2022-09-23T16:06:00.459Z,21.49
2022-09-23T16:08:28.875Z,21.41
2022-09-23T16:10:56.753Z,21.48
2022-09-23T16:13:26.020Z,21.47
2022-09-23T16:15:54.063Z,21.44
2022-09-23T16:18:22.152Z,21.44
2022-09-23T16:20:50.903Z,21.41
2022-09-23T16:23:34.047Z,21.30
2022-09-23T16:26:07.189Z,21.18
2022-09-23T16:28:36.521Z,21.15
2022-09-23T16:31:04.751Z,21.12
2022-09-23T16:33:32.624Z,21.11
2022-09-23T16:36:00.884Z,21.08
2022-09-23T16:38:29.412Z,21.06
2022-09-23T16:41:00.141Z,21.00
2022-09-23T16:43:39.501Z,20.91
2022-09-23T16:46:12.090Z,20.85
2022-09-23T16:48:40.778Z,20.83
2022-09-23T16:51:13.114Z,20.81
2022-09-23T16:53:42.343Z,20.71
2022-09-23T16:56:12.876Z,20.72
2022-09-23T16:58:40.937Z,20.66
2022-09-23T17:01:36.929Z,20.56
2022-09-23T17:04:05.093Z,20.44
2022-09-23T17:06:33.091Z,20.39
2022-09-23T17:09:01.185Z,20.33
2022-09-23T17:11:33.425Z,20.28
2022-09-23T17:14:05.537Z,20.20
2022-09-23T17:16:35.073Z,20.15
2022-09-23T17:19:08.070Z,20.09
2022-09-23T17:21:36.647Z,20.01
2022-09-23T17:24:05.869Z,19.95
2022-09-23T17:26:34.166Z,19.90
2022-09-23T17:29:05.520Z,19.86
2022-09-23T17:31:34.892Z,19.76
2022-09-23T17:34:02.873Z,19.73
2022-09-23T17:36:30.659Z,19.74
2022-09-23T17:38:58.413Z,19.72
2022-09-23T17:41:27.382Z,19.67
2022-09-23T17:44:00.341Z,19.66
2022-09-23T17:46:30.021Z,19.64
2022-09-23T17:48:59.241Z,19.53
2022-09-23T17:51:27.509Z,19.41
2022-09-23T17:53:55.865Z,19.41
2022-09-23T17:56:26.225Z,19.40
2022-09-23T17:58:54.563Z,19.34
2022-09-23T18:01:24.955Z,19.27
2022-09-23T18:04:05.556Z,19.19
2022-09-23T18:06:36.969Z,19.07
2022-09-23T18:09:08.465Z,18.94
2022-09-23T18:11:40.558Z,18.85
2022-09-23T18:14:15.475Z,18.72
2022-09-23T18:16:48.345Z,18.62
2022-09-23T18:19:22.548Z,18.59
2022-09-23T18:21:54.358Z,18.52
2022-09-23T18:24:38.738Z,18.38
2022-09-23T18:27:07.606Z,18.36
2022-09-23T18:29:38.045Z,18.35
2022-09-23T18:32:07.591Z,18.19
2022-09-23T18:34:39.588Z,17.99
2022-09-23T18:37:15.339Z,18.01
2022-09-23T18:39:44.912Z,18.03
2022-09-23T18:42:13.014Z,18.01
2022-09-23T18:44:42.205Z,17.99
2022-09-23T18:47:30.025Z,17.95
2022-09-23T18:50:17.691Z,17.93
2022-09-23T18:52:45.530Z,17.91
2022-09-23T18:55:13.539Z,17.85
2022-09-23T18:57:41.755Z,17.78
2022-09-23T19:00:11.596Z,17.79
2022-09-23T19:02:39.344Z,17.77
2022-09-23T19:05:09.397Z,17.63
2022-09-23T19:07:37.665Z,17.61
2022-09-23T19:10:08.091Z,17.60
2022-09-23T19:12:37.483Z,17.63
2022-09-23T19:15:06.498Z,17.62
2022-09-23T19:17:36.924Z,17.59
2022-09-23T19:20:06.318Z,17.51
2022-09-23T19:22:38.159Z,17.52
2022-09-23T19:25:08.753Z,17.53
2022-09-23T19:27:37.018Z,17.52
2022-09-23T19:30:08.230Z,17.56
2022-09-23T19:32:36.153Z,17.47
2022-09-23T19:35:04.685Z,17.50
2022-09-23T19:37:33.359Z,17.48
2022-09-23T19:40:02.586Z,17.51
2022-09-23T19:42:30.694Z,17.50
2022-09-23T19:44:58.490Z,17.46
2022-09-23T19:47:26.278Z,17.43
2022-09-23T19:49:54.190Z,17.38
2022-09-23T19:52:21.959Z,17.34
2022-09-23T19:54:52.866Z,17.35
2022-09-23T19:57:22.089Z,17.38
2022-09-23T19:59:51.042Z,17.42
2022-09-23T20:02:18.842Z,17.37
2022-09-23T20:04:46.686Z,17.41
2022-09-23T20:07:14.920Z,17.44
2022-09-23T20:09:43.326Z,17.49
2022-09-23T20:12:12.810Z,17.42
2022-09-23T20:14:41.944Z,17.38
2022-09-23T20:17:10.145Z,17.36
2022-09-23T20:19:38.018Z,17.31
2022-09-23T20:22:25.964Z,17.37
2022-09-23T20:24:56.208Z,17.34
2022-09-23T20:27:25.382Z,17.26
2022-09-23T20:29:55.706Z,17.24
2022-09-23T20:32:25.487Z,17.23
2022-09-23T20:34:54.502Z,17.24
2022-09-23T20:37:24.694Z,17.18
2022-09-23T20:39:53.504Z,17.12
2022-09-23T20:42:21.758Z,17.02
2022-09-23T20:44:50.919Z,16.97
2022-09-23T20:47:24.398Z,16.95
2022-09-23T20:49:58.691Z,16.61
2022-09-23T20:52:27.527Z,16.68
2022-09-23T20:54:55.499Z,16.82
2022-09-23T20:57:23.368Z,16.73
2022-09-23T20:59:51.779Z,16.74
2022-09-23T21:02:21.566Z,16.74
2022-09-23T21:04:49.559Z,16.75
2022-09-23T21:07:17.790Z,16.84
2022-09-23T21:09:45.568Z,16.92
2022-09-23T21:12:13.366Z,16.98
2022-09-23T21:14:41.192Z,17.00
2022-09-23T21:17:09.219Z,17.02
2022-09-23T21:19:41.479Z,17.02
2022-09-23T21:22:09.560Z,17.01
2022-09-23T21:25:16.053Z,17.00
2022-09-23T21:27:27.473Z,16.84
2022-09-23T21:29:55.308Z,16.77
2022-09-23T21:32:23.097Z,16.79
2022-09-23T21:34:52.485Z,16.78
2022-09-23T21:37:21.559Z,16.80
2022-09-23T21:40:08.505Z,16.77
2022-09-23T21:42:36.883Z,16.75
2022-09-23T21:45:06.277Z,16.75
2022-09-23T21:47:34.128Z,16.81
2022-09-23T21:50:04.116Z,16.74
2022-09-23T21:52:31.959Z,16.73
2022-09-23T21:54:59.972Z,16.69
2022-09-23T21:57:30.403Z,16.70
2022-09-23T21:59:58.437Z,16.70
2022-09-23T22:02:28.416Z,16.75
2022-09-23T22:04:56.689Z,16.75
2022-09-23T22:07:26.537Z,16.71
2022-09-23T22:09:54.568Z,16.71
2022-09-23T22:12:24.003Z,16.73
2022-09-23T22:14:52.130Z,16.75
2022-09-23T22:17:21.078Z,16.67
2022-09-23T22:19:49.189Z,16.73
2022-09-23T22:22:19.623Z,16.75
2022-09-23T22:24:49.171Z,16.77
2022-09-23T22:27:19.723Z,16.77
2022-09-23T22:30:07.839Z,16.72
2022-09-23T22:32:41.728Z,16.72
2022-09-23T22:35:13.350Z,16.72
2022-09-23T22:37:41.525Z,16.75
2022-09-23T22:40:14.342Z,16.68
2022-09-23T22:42:43.720Z,16.66
2022-09-23T22:45:12.917Z,16.65
2022-09-23T22:47:45.813Z,16.65
2022-09-23T22:50:14.613Z,16.69
2022-09-23T22:52:43.619Z,16.72
2022-09-23T22:55:13.557Z,16.67
2022-09-23T22:57:42.959Z,16.70
2022-09-23T23:00:13.879Z,16.68
2022-09-23T23:02:42.297Z,16.72
2022-09-23T23:05:11.100Z,16.78
2022-09-23T23:07:39.374Z,16.80
2022-09-23T23:10:12.608Z,16.81
2022-09-23T23:12:41.468Z,16.75
2022-09-23T23:15:12.553Z,16.67
2022-09-23T23:17:43.260Z,16.63
2022-09-23T23:20:12.005Z,16.66
2022-09-23T23:22:39.856Z,16.67
2022-09-23T23:25:09.912Z,16.65
2022-09-23T23:27:39.192Z,16.69
2022-09-23T23:30:11.248Z,16.71
2022-09-23T23:32:39.309Z,16.72
2022-09-23T23:35:09.463Z,16.74
2022-09-23T23:37:39.159Z,16.75
2022-09-23T23:40:08.704Z,16.74
2022-09-23T23:42:36.897Z,16.66
2022-09-23T23:45:08.587Z,16.60
2022-09-23T23:47:36.811Z,16.62
2022-09-23T23:50:05.561Z,16.56
2022-09-23T23:52:33.507Z,16.58
2022-09-23T23:55:01.592Z,16.63
2022-09-23T23:57:30.466Z,16.62
2022-09-23T23:59:58.649Z,16.52
